| time (UTC) | temp C | wind direction | speed KPH | gust KPH | rain 1hr cm | rain 24hr cm | rain mn cm | humidity % | barometer mb |
| 20260503053044 | 26 | 257 | 4.8 | 4.8 | 0.00 | 0.00 | 0.00 | 76 | 1013.2 |
| 20260503052541 | 26 | 289 | 1.6 | 1.6 | 0.00 | 0.00 | 0.00 | 78 | 1013.1 |
| 20260503052037 | 26 | 292 | 4.8 | 4.8 | 0.00 | 0.00 | 0.00 | 77 | 1013.3 |
| 20260503051533 | 26 | 278 | 4.8 | 4.8 | 0.00 | 0.00 | 0.00 | 77 | 1013.5 |
| 20260503051031 | 26 | 292 | 4.8 | 4.8 | 0.00 | 0.00 | 0.00 | 76 | 1013.6 |
| 20260503050526 | 26 | 256 | 3.2 | 4.8 | 0.00 | 0.00 | 0.00 | 75 | 1013.3 |
| 20260503050024 | 26 | 279 | 3.2 | 3.2 | 0.00 | 0.00 | 0.00 | 77 | 1013.2 |
| 20260503045521 | 26 | 285 | 3.2 | 3.2 | 0.00 | 0.00 | 0.00 | 76 | 1013.4 |
| 20260503045018 | 26 | 244 | 3.2 | 4.8 | 0.00 | 0.00 | 0.00 | 75 | 1013.5 |
| 20260503044515 | 26 | 254 | 4.8 | 8.0 | 0.00 | 0.00 | 0.00 | 77 | 1013.7 |
| 20260503044013 | 26 | 284 | 3.2 | 3.2 | 0.00 | 0.00 | 0.00 | 80 | 1013.7 |
| 20260503043508 | 26 | 295 | 3.2 | 3.2 | 0.00 | 0.00 | 0.00 | 80 | 1013.6 |
| 20260503043005 | 26 | 258 | 6.4 | 8.0 | 0.00 | 0.00 | 0.00 | 80 | 1013.5 |
| 20260503042502 | 26 | 257 | 8.0 | 9.7 | 0.00 | 0.00 | 0.00 | 80 | 1013.5 |
| 20260503041958 | 26 | 258 | 4.8 | 4.8 | 0.00 | 0.00 | 0.00 | 79 | 1013.5 |
| 20260503041455 | 27 | 240 | 4.8 | 4.8 | 0.00 | 0.00 | 0.00 | 79 | 1013.4 |
| 20260503040953 | 27 | 275 | 3.2 | 3.2 | 0.00 | 0.00 | 0.00 | 79 | 1013.2 |
| 20260503040450 | 27 | 287 | 3.2 | 3.2 | 0.00 | 0.00 | 0.00 | 78 | 1013.3 |
| 20260503035947 | 27 | 287 | 4.8 | 4.8 | 0.00 | 0.00 | 0.00 | 78 | 1013.2 |
| 20260503035444 | 27 | 289 | 4.8 | 8.0 | 0.00 | 0.00 | 0.00 | 78 | 1013.4 |
| 20260503034941 | 27 | 292 | 3.2 | 3.2 | 0.00 | 0.00 | 0.00 | 78 | 1013.2 |
| 20260503034439 | 27 | 259 | 6.4 | 8.0 | 0.00 | 0.00 | 0.00 | 78 | 1013.3 |
| 20260503033936 | 27 | 277 | 6.4 | 8.0 | 0.00 | 0.00 | 0.00 | 78 | 1013.0 |
| 20260503033433 | 27 | 242 | 6.4 | 8.0 | 0.00 | 0.00 | 0.00 | 78 | 1013.1 |
| 20260503032931 | 27 | 279 | 6.4 | 9.7 | 0.00 | 0.00 | 0.00 | 78 | 1013.0 |
| 20260503032429 | 27 | 272 | 4.8 | 8.0 | 0.00 | 0.00 | 0.00 | 78 | 1012.9 |
| 20260503031926 | 27 | 281 | 11.3 | 12.9 | 0.00 | 0.00 | 0.00 | 78 | 1013.1 |
| 20260503031424 | 27 | 292 | 3.2 | 3.2 | 0.00 | 0.00 | 0.00 | 78 | 1012.9 |
| 20260503030920 | 27 | 272 | 4.8 | 4.8 | 0.00 | 0.00 | 0.00 | 78 | 1013.1 |
| 20260503030417 | 27 | 285 | 4.8 | 4.8 | 0.00 | 0.00 | 0.00 | 78 | 1013.1 |
| 20260503025914 | 27 | 290 | 4.8 | 4.8 | 0.00 | 0.00 | 0.00 | 77 | 1012.9 |
| 20260503025411 | 27 | 254 | 6.4 | 9.7 | 0.00 | 0.00 | 0.00 | 77 | 1012.9 |
| 20260503024908 | 27 | 275 | 3.2 | 3.2 | 0.00 | 0.00 | 0.00 | 77 | 1012.8 |
| 20260503024405 | 27 | 260 | 6.4 | 8.0 | 0.00 | 0.00 | 0.00 | 76 | 1012.9 |
| 20260503023902 | 27 | 275 | 8.0 | 9.7 | 0.00 | 0.00 | 0.00 | 76 | 1013.1 |
| 20260503023359 | 27 | 256 | 4.8 | 4.8 | 0.00 | 0.00 | 0.00 | 76 | 1013.0 |
| 20260503022855 | 27 | 281 | 4.8 | 8.0 | 0.00 | 0.00 | 0.00 | 76 | 1013.0 |
| 20260503022349 | 27 | 256 | 8.0 | 11.3 | 0.00 | 0.00 | 0.00 | 75 | 1013.0 |
| 20260503021847 | 27 | 298 | 4.8 | 4.8 | 0.00 | 0.00 | 0.00 | 75 | 1013.1 |
| 20260503021343 | 27 | 277 | 4.8 | 4.8 | 0.00 | 0.00 | 0.00 | 74 | 1013.0 |
| 20260503020840 | 27 | 283 | 6.4 | 8.0 | 0.00 | 0.00 | 0.00 | 73 | 1012.9 |
| 20260503020338 | 27 | 280 | 3.2 | 3.2 | 0.00 | 0.00 | 0.00 | 74 | 1012.8 |
| 20260503015834 | 27 | 277 | 8.0 | 11.3 | 0.00 | 0.00 | 0.00 | 72 | 1012.6 |
| 20260503015331 | 27 | 275 | 6.4 | 8.0 | 0.00 | 0.00 | 0.00 | 72 | 1012.8 |
| 20260503014827 | 27 | 289 | 4.8 | 4.8 | 0.00 | 0.00 | 0.00 | 73 | 1012.7 |
| 20260503014325 | 28 | 267 | 11.3 | 14.5 | 0.00 | 0.00 | 0.00 | 73 | 1012.7 |
| 20260503013822 | 28 | 281 | 6.4 | 9.7 | 0.00 | 0.00 | 0.00 | 71 | 1012.8 |
| 20260503013319 | 28 | 278 | 8.0 | 11.3 | 0.00 | 0.00 | 0.00 | 71 | 1012.6 |
| 20260503012816 | 28 | 287 | 4.8 | 8.0 | 0.00 | 0.00 | 0.00 | 71 | 1012.6 |
| 20260503012314 | 28 | 263 | 4.8 | 8.0 | 0.00 | 0.00 | 0.00 | 70 | 1012.4 |
| 20260503011810 | 28 | 278 | 4.8 | 8.0 | 0.00 | 0.00 | 0.00 | 70 | 1012.2 |
| 20260503011308 | 28 | 260 | 4.8 | 4.8 | 0.00 | 0.00 | 0.00 | 69 | 1012.4 |
| 20260503010803 | 28 | 260 | 6.4 | 8.0 | 0.00 | 0.00 | 0.00 | 66 | 1012.2 |
| 20260503010301 | 28 | 258 | 9.7 | 12.9 | 0.00 | 0.00 | 0.00 | 66 | 1012.1 |
| 20260503005758 | 28 | 250 | 8.0 | 11.3 | 0.00 | 0.00 | 0.00 | 66 | 1012.1 |
| 20260503005255 | 28 | 251 | 8.0 | 9.7 | 0.00 | 0.00 | 0.00 | 63 | 1012.2 |
| 20260503004751 | 29 | 232 | 8.0 | 12.9 | 0.00 | 0.00 | 0.00 | 63 | 1011.8 |
| 20260503004249 | 29 | 280 | 4.8 | 8.0 | 0.00 | 0.00 | 0.00 | 63 | 1011.7 |
| 20260503003746 | 29 | 290 | 6.4 | 9.7 | 0.00 | 0.00 | 0.00 | 62 | 1011.7 |
| 20260503003243 | 29 | 292 | 4.8 | 8.0 | 0.00 | 0.00 | 0.00 | 61 | 1011.9 |
| 20260503002740 | 29 | 253 | 8.0 | 11.3 | 0.00 | 0.00 | 0.00 | 60 | 1011.9 |
| 20260503002237 | 30 | 256 | 11.3 | 16.1 | 0.00 | 0.00 | 0.00 | 59 | 1011.7 |
| 20260503001733 | 30 | 268 | 12.9 | 16.1 | 0.00 | 0.00 | 0.00 | 58 | 1011.7 |
| 20260503001229 | 30 | 251 | 6.4 | 9.7 | 0.00 | 0.00 | 0.00 | 58 | 1011.6 |
| 20260503000728 | 30 | 294 | 4.8 | 4.8 | 0.00 | 0.00 | 0.00 | 59 | 1011.4 |
| 20260503000225 | 30 | 246 | 8.0 | 12.9 | 0.00 | 0.00 | 0.00 | 57 | 1011.3 |
| 20260502235721 | 30 | 267 | 8.0 | 11.3 | 0.00 | 0.00 | 0.00 | 57 | 1011.4 |
| 20260502235219 | 30 | 276 | 6.4 | 8.0 | 0.00 | 0.00 | 0.00 | 55 | 1011.4 |
| 20260502234715 | 30 | 235 | 8.0 | 11.3 | 0.00 | 0.00 | 0.00 | 55 | 1010.9 |
| 20260502234213 | 31 | 284 | 6.4 | 9.7 | 0.00 | 0.00 | 0.00 | 54 | 1011.2 |
| 20260502233708 | 31 | 273 | 8.0 | 11.3 | 0.00 | 0.00 | 0.00 | 54 | 1010.9 |
| 20260502233206 | -17 | 257 | 11.3 | 14.5 | 0.00 | 0.00 | 0.00 | 1011.0 | |
| 20260502232701 | -17 | 252 | 9.7 | 11.3 | 0.00 | 0.00 | 0.00 | 1010.9 | |
| 20260502232159 | -17 | 265 | 3.2 | 3.2 | 0.00 | 0.00 | 0.00 | 1010.7 | |
| 20260502231655 | -17 | 268 | 6.4 | 9.7 | 0.00 | 0.00 | 0.00 | 1010.7 | |
| 20260502231153 | -17 | 271 | 8.0 | 9.7 | 0.00 | 0.00 | 0.00 | 1010.5 | |
| 20260502230651 | -17 | 273 | 6.4 | 9.7 | 0.00 | 0.00 | 0.00 | 1010.3 | |
| 20260502230150 | -17 | 258 | 6.4 | 8.0 | 0.00 | 0.00 | 0.00 | 1010.3 | |
| 20260502225644 | -17 | 248 | 8.0 | 9.7 | 0.00 | 0.00 | 0.00 | 1010.2 | |
| 20260502225142 | -17 | 255 | 6.4 | 8.0 | 0.00 | 0.00 | 0.00 | 1010.1 | |
| 20260502224638 | -17 | 248 | 6.4 | 9.7 | 0.00 | 0.00 | 0.00 | 1010.1 | |
| 20260502224135 | -17 | 279 | 4.8 | 8.0 | 0.00 | 0.00 | 0.00 | 1010.1 | |
| 20260502223633 | -17 | 252 | 6.4 | 8.0 | 0.00 | 0.00 | 0.00 | 1010.0 | |
| 20260502223131 | -17 | 278 | 4.8 | 4.8 | 0.00 | 0.00 | 0.00 | 1009.9 | |
| 20260502222628 | -17 | 276 | 6.4 | 9.7 | 0.00 | 0.00 | 0.00 | 1010.0 | |
| 20260502222125 | -17 | 262 | 4.8 | 4.8 | 0.00 | 0.00 | 0.00 | 1010.1 | |
| 20260502221620 | -17 | 268 | 8.0 | 9.7 | 0.00 | 0.00 | 0.00 | 1009.9 | |
| 20260502221118 | -17 | 245 | 8.0 | 9.7 | 0.00 | 0.00 | 0.00 | 1010.0 | |
| 20260502220614 | -17 | 246 | 11.3 | 12.9 | 0.00 | 0.00 | 0.00 | 1010.0 | |
| 20260502220110 | -17 | 269 | 11.3 | 16.1 | 0.00 | 0.00 | 0.00 | 1010.0 | |
| 20260502215608 | -17 | 244 | 11.3 | 16.1 | 0.00 | 0.00 | 0.00 | 1009.7 | |
| 20260502215104 | -17 | 281 | 12.9 | 16.1 | 0.00 | 0.00 | 0.00 | 1009.9 | |
| 20260502214601 | -17 | 237 | 8.0 | 11.3 | 0.00 | 0.00 | 0.00 | 1009.8 | |
| 20260502214059 | -17 | 245 | 11.3 | 14.5 | 0.00 | 0.00 | 0.00 | 1009.9 | |
| 20260502213555 | -17 | 265 | 6.4 | 9.7 | 0.00 | 0.00 | 0.00 | 1009.7 | |
| 20260502213053 | -17 | 253 | 14.5 | 25.7 | 0.00 | 0.00 | 0.00 | 1009.9 | |
| 20260502212552 | -17 | 285 | 12.9 | 16.1 | 0.00 | 0.00 | 0.00 | 1009.6 | |
| 20260502212049 | -17 | 255 | 14.5 | 20.9 | 0.00 | 0.00 | 0.00 | 1009.7 | |
| 20260502211545 | -17 | 243 | 11.3 | 12.9 | 0.00 | 0.00 | 0.00 | 1009.7 | |
| 20260502211042 | -17 | 282 | 9.7 | 12.9 | 0.00 | 0.00 | 0.00 | 1009.4 | |
| 20260502210539 | -17 | 284 | 6.4 | 8.0 | 0.00 | 0.00 | 0.00 | 1009.6 | |
| 20260502210036 | -17 | 342 | 9.7 | 16.1 | 0.00 | 0.00 | 0.00 | 1009.3 | |
| 20260502205533 | -17 | 306 | 1.6 | 1.6 | 0.00 | 0.00 | 0.00 | 1009.5 | |
| 20260502205030 | -17 | 290 | 8.0 | 11.3 | 0.00 | 0.00 | 0.00 | 1009.5 | |
| 20260502204526 | -17 | 236 | 6.4 | 12.9 | 0.00 | 0.00 | 0.00 | 1009.5 | |
| 20260502204025 | -17 | 223 | 12.9 | 17.7 | 0.00 | 0.00 | 0.00 | 1009.5 | |
| 20260502203521 | -17 | 260 | 11.3 | 12.9 | 0.00 | 0.00 | 0.00 | 1009.4 | |
| 20260502203018 | -17 | 246 | 4.8 | 4.8 | 0.00 | 0.00 | 0.00 | 1009.5 | |
| 20260502202514 | -17 | 291 | 3.2 | 4.8 | 0.00 | 0.00 | 0.00 | 1009.6 | |
| 20260502202013 | 33 | 277 | 6.4 | 8.0 | 0.00 | 0.00 | 0.00 | 45 | 1009.6 |
| 20260502201509 | 33 | 243 | 9.7 | 12.9 | 0.00 | 0.00 | 0.00 | 46 | 1009.7 |
| 20260502201005 | 33 | 327 | 3.2 | 3.2 | 0.00 | 0.00 | 0.00 | 46 | 1009.7 |
| 20260502200501 | 33 | 257 | 4.8 | 9.7 | 0.00 | 0.00 | 0.00 | 45 | 1009.9 |
| 20260502195959 | 33 | 257 | 17.7 | 20.9 | 0.00 | 0.00 | 0.00 | 45 | 1009.8 |
| 20260502195456 | 33 | 223 | 9.7 | 11.3 | 0.00 | 0.00 | 0.00 | 47 | 1009.9 |
| 20260502194952 | 33 | 258 | 14.5 | 20.9 | 0.00 | 0.00 | 0.00 | 45 | 1010.0 |
| 20260502194449 | 33 | 281 | 8.0 | 11.3 | 0.00 | 0.00 | 0.00 | 46 | 1010.1 |
| 20260502193944 | 33 | 225 | 6.4 | 9.7 | 0.00 | 0.00 | 0.00 | 45 | 1010.0 |
| 20260502193442 | 33 | 245 | 22.5 | 27.4 | 0.00 | 0.00 | 0.00 | 46 | 1010.0 |
| 20260502192938 | 33 | 230 | 11.3 | 14.5 | 0.00 | 0.00 | 0.00 | 48 | 1010.1 |
| 20260502192435 | 33 | 269 | 9.7 | 11.3 | 0.00 | 0.00 | 0.00 | 48 | 1010.2 |
| 20260502191932 | 33 | 279 | 9.7 | 12.9 | 0.00 | 0.00 | 0.00 | 48 | 1010.1 |
| 20260502191429 | 33 | 269 | 12.9 | 25.7 | 0.00 | 0.00 | 0.00 | 49 | 1010.1 |
| 20260502190927 | 33 | 255 | 17.7 | 22.5 | 0.00 | 0.00 | 0.00 | 50 | 1010.2 |
| 20260502190424 | 33 | 285 | 11.3 | 12.9 | 0.00 | 0.00 | 0.00 | 45 | 1010.0 |
| 20260502185920 | 33 | 287 | 8.0 | 12.9 | 0.00 | 0.00 | 0.00 | 48 | 1010.3 |
| 20260502185415 | 33 | 285 | 8.0 | 12.9 | 0.00 | 0.00 | 0.00 | 50 | 1010.3 |
| 20260502184913 | 33 | 289 | 4.8 | 8.0 | 0.00 | 0.00 | 0.00 | 49 | 1010.3 |
| 20260502184409 | 33 | 251 | 11.3 | 14.5 | 0.00 | 0.00 | 0.00 | 47 | 1010.3 |
| 20260502183905 | 33 | 271 | 20.9 | 27.4 | 0.00 | 0.00 | 0.00 | 48 | 1010.3 |
| 20260502183401 | 33 | 238 | 9.7 | 12.9 | 0.00 | 0.00 | 0.00 | 48 | 1010.4 |
| 20260502182856 | 33 | 253 | 8.0 | 11.3 | 0.00 | 0.00 | 0.00 | 51 | 1010.2 |
| 20260502182352 | 33 | 221 | 9.7 | 20.9 | 0.00 | 0.00 | 0.00 | 51 | 1010.3 |
| 20260502181849 | 32 | 241 | 12.9 | 17.7 | 0.00 | 0.00 | 0.00 | 52 | 1010.2 |
| 20260502181348 | 33 | 228 | 19.3 | 22.5 | 0.00 | 0.00 | 0.00 | 52 | 1010.5 |
| 20260502180845 | 33 | 240 | 11.3 | 16.1 | 0.00 | 0.00 | 0.00 | 55 | 1010.7 |
| 20260502180342 | 33 | 245 | 11.3 | 16.1 | 0.00 | 0.00 | 0.00 | 54 | 1010.6 |
| 20260502170255 | 32 | 247 | 9.7 | 14.5 | 0.00 | 0.00 | 0.00 | 62 | 1010.8 |
| 20260502164242 | 32 | 280 | 6.4 | 8.0 | 0.00 | 0.00 | 0.00 | 63 | 1011.1 |
| 20260502163738 | 31 | 269 | 8.0 | 9.7 | 0.00 | 0.00 | 0.00 | 64 | 1011.2 |
| 20260502163235 | 32 | 255 | 8.0 | 14.5 | 0.00 | 0.00 | 0.00 | 61 | 1011.1 |
| 20260502162732 | 32 | 287 | 3.2 | 3.2 | 0.00 | 0.00 | 0.00 | 63 | 1011.3 |
| 20260502162229 | 31 | 255 | 8.0 | 14.5 | 0.00 | 0.00 | 0.00 | 65 | 1011.3 |
| 20260502161726 | 31 | 104 | 6.4 | 8.0 | 0.00 | 0.00 | 0.00 | 63 | 1011.3 |
| 20260502161222 | 31 | 262 | 6.4 | 9.7 | 0.00 | 0.00 | 0.00 | 64 | 1011.3 |
| 20260502160721 | 31 | 33 | 4.8 | 4.8 | 0.00 | 0.00 | 0.00 | 63 | 1011.1 |
| 20260502160219 | 31 | 264 | 3.2 | 3.2 | 0.00 | 0.00 | 0.00 | 64 | 1011.3 |
| 20260502152143 | 30 | 245 | 4.8 | 4.8 | 0.00 | 0.00 | 0.00 | 66 | 1011.6 |
| 20260502151641 | 30 | 299 | 4.8 | 4.8 | 0.00 | 0.00 | 0.00 | 66 | 1011.6 |
| 20260502151138 | 31 | 59 | 3.2 | 3.2 | 0.00 | 0.00 | 0.00 | 65 | 1011.8 |
| 20260502150635 | 31 | 228 | 3.2 | 9.7 | 0.00 | 0.00 | 0.00 | 65 | 1011.6 |
| 20260502150131 | 31 | 344 | 0.0 | 1.6 | 0.00 | 0.00 | 0.00 | 64 | 1011.6 |
| 20260502130520 | 28 | 73 | 1.6 | 8.0 | 0.00 | 0.00 | 0.00 | 80 | 1011.3 |
| 20260502123503 | 27 | 311 | 0.0 | 0.0 | 0.00 | 0.00 | 0.00 | 83 | 1011.3 |
| 20260502123000 | 26 | 283 | 1.6 | 1.6 | 0.00 | 0.00 | 0.00 | 84 | 1011.3 |
| 20260502122456 | 26 | 279 | 4.8 | 8.0 | 0.00 | 0.00 | 0.00 | 84 | 1011.5 |
| 20260502121954 | 26 | 269 | 1.6 | 3.2 | 0.00 | 0.00 | 0.00 | 85 | 1011.6 |
| 20260502121451 | 26 | 293 | 1.6 | 3.2 | 0.00 | 0.00 | 0.00 | 84 | 1011.3 |
| 20260502120948 | 26 | 9 | 0.0 | 0.0 | 0.00 | 0.00 | 0.00 | 84 | 1011.5 |
| 20260502120444 | 26 | 9 | 0.0 | 1.6 | 0.00 | 0.00 | 0.00 | 84 | 1011.2 |
| 20260502115439 | 26 | 347 | 0.0 | 0.0 | 0.00 | 0.00 | 0.00 | 83 | 1011.4 |
| 20260502114935 | 26 | 277 | 0.0 | 0.0 | 0.00 | 0.00 | 0.00 | 83 | 1011.2 |
| 20260502114432 | 26 | 272 | 0.0 | 0.0 | 0.00 | 0.00 | 0.00 | 84 | 1011.2 |
| 20260502113929 | 25 | 273 | 0.0 | 0.0 | 0.00 | 0.00 | 0.00 | 84 | 1011.3 |
| 20260502113427 | 25 | 269 | 0.0 | 0.0 | 0.00 | 0.00 | 0.00 | 86 | 1011.5 |
| 20260502112925 | 25 | 273 | 0.0 | 0.0 | 0.00 | 0.00 | 0.00 | 87 | 1011.4 |
| 20260502112422 | 24 | 273 | 0.0 | 0.0 | 0.00 | 0.00 | 0.00 | 87 | 1011.4 |
| 20260502111920 | 24 | 273 | 0.0 | 0.0 | 0.00 | 0.00 | 0.00 | 87 | 1011.7 |
| 20260502111416 | 23 | 274 | 0.0 | 0.0 | 0.00 | 0.00 | 0.00 | 87 | 1011.4 |
| 20260502110914 | 23 | 273 | 0.0 | 0.0 | 0.00 | 0.00 | 0.00 | 87 | 1011.6 |
| 20260502110412 | 23 | 273 | 0.0 | 0.0 | 0.00 | 0.00 | 0.00 | 87 | 1011.3 |
| 20260502105909 | 23 | 273 | 0.0 | 0.0 | 0.00 | 0.00 | 0.00 | 87 | 1011.3 |
| 20260502105406 | 23 | 273 | 0.0 | 0.0 | 0.00 | 0.00 | 0.00 | 87 | 1011.2 |
| 20260502104904 | 23 | 273 | 0.0 | 0.0 | 0.00 | 0.00 | 0.00 | 87 | 1011.4 |
| 20260502104401 | 23 | 273 | 0.0 | 0.0 | 0.00 | 0.00 | 0.00 | 87 | 1011.3 |
| 20260502103858 | 23 | 273 | 0.0 | 0.0 | 0.00 | 0.00 | 0.00 | 87 | 1011.2 |
| 20260502103356 | 23 | 273 | 0.0 | 0.0 | 0.00 | 0.00 | 0.00 | 87 | 1011.6 |
| 20260502102852 | 23 | 273 | 0.0 | 0.0 | 0.00 | 0.00 | 0.00 | 87 | 1011.2 |
| 20260502102349 | 23 | 273 | 0.0 | 0.0 | 0.00 | 0.00 | 0.00 | 87 | 1011.4 |
| 20260502101846 | 23 | 273 | 0.0 | 0.0 | 0.00 | 0.00 | 0.00 | 86 | 1011.4 |
| 20260502101345 | 23 | 273 | 0.0 | 0.0 | 0.00 | 0.00 | 0.00 | 86 | 1011.0 |
| 20260502100843 | 23 | 273 | 0.0 | 0.0 | 0.00 | 0.00 | 0.00 | 86 | 1011.1 |
| 20260502100342 | 23 | 273 | 0.0 | 0.0 | 0.00 | 0.00 | 0.00 | 86 | 1011.3 |
| 20260502091315 | 23 | 273 | 0.0 | 0.0 | 0.00 | 0.00 | 0.00 | 86 | 1011.3 |
| 20260502090813 | 23 | 273 | 0.0 | 0.0 | 0.00 | 0.00 | 0.00 | 86 | 1011.3 |
| 20260502090309 | 23 | 273 | 0.0 | 0.0 | 0.00 | 0.00 | 0.00 | 86 | 1011.3 |
| 20260502071205 | 23 | 275 | 0.0 | 0.0 | 0.00 | 0.00 | 0.00 | 84 | 1011.3 |
| 20260502070703 | 23 | 275 | 0.0 | 0.0 | 0.00 | 0.00 | 0.00 | 83 | 1011.6 |
| 20260502070200 | 23 | 275 | 0.0 | 0.0 | 0.00 | 0.00 | 0.00 | 83 | 1011.2 |
| 20260502065659 | 23 | 275 | 0.0 | 0.0 | 0.00 | 0.00 | 0.00 | 83 | 1011.4 |
| 20260502065156 | 23 | 275 | 0.0 | 0.0 | 0.00 | 0.00 | 0.00 | 82 | 1011.5 |
| 20260502064655 | 23 | 275 | 0.0 | 0.0 | 0.00 | 0.00 | 0.00 | 82 | 1011.6 |
| 20260502064151 | 23 | 275 | 0.0 | 0.0 | 0.00 | 0.00 | 0.00 | 82 | 1011.5 |
| 20260502063649 | 24 | 275 | 1.6 | 1.6 | 0.00 | 0.00 | 0.00 | 83 | 1011.4 |
| 20260502063147 | 24 | 275 | 1.6 | 1.6 | 0.00 | 0.00 | 0.00 | 81 | 1011.7 |
| 20260502062643 | 24 | 275 | 1.6 | 1.6 | 0.00 | 0.00 | 0.00 | 81 | 1011.5 |
| 20260502062141 | 24 | 275 | 0.0 | 0.0 | 0.00 | 0.00 | 0.00 | 80 | 1011.5 |
| 20260502061639 | 24 | 275 | 0.0 | 0.0 | 0.00 | 0.00 | 0.00 | 82 | 1011.5 |
| 20260502061137 | 24 | 275 | 1.6 | 1.6 | 0.00 | 0.00 | 0.00 | 82 | 1011.4 |
| 20260502060636 | 24 | 275 | 0.0 | 0.0 | 0.00 | 0.00 | 0.00 | 81 | 1011.6 |
| 20260502060133 | 24 | 275 | 0.0 | 0.0 | 0.00 | 0.00 | 0.00 | 81 | 1011.5 |
| 20260502055631 | 24 | 275 | 0.0 | 0.0 | 0.00 | 0.00 | 0.00 | 81 | 1011.6 |
| 20260502055129 | 24 | 275 | 0.0 | 0.0 | 0.00 | 0.00 | 0.00 | 81 | 1011.4 |
| 20260502054628 | 24 | 275 | 1.6 | 1.6 | 0.00 | 0.00 | 0.00 | 81 | 1011.6 |
| 20260502054125 | 24 | 275 | 0.0 | 1.6 | 0.00 | 0.00 | 0.00 | 80 | 1011.4 |
| 20260502053622 | 24 | 275 | 0.0 | 0.0 | 0.00 | 0.00 | 0.00 | 80 | 1011.6 |